Rocky Point, NC (28457)

5:48 PM EST on February 27, 2015 (GMT -0500)
St. Helena | Change Station
CLOSE
Current Station
Personal Weather Station
Location: Burgaw, NC
Elevation: 49 ft
Nearby Weather Stations
Active Advisory: Flood Advisory

Elev 49 ft 34.51 °N, 77.91 °W | Updated 18 minutes ago

Partly Cloudy
Partly Cloudy
49.5 °F
Feels Like 50 °F
N
2.0
Wind Variable Wind from NE
Gusts 10.0 mph

Today
High -- | Low -- °F
--% Chance of Precip.
Yesterday
High -- | Low -- °F
Precip. -- in
6:43 AM 6:05 PM
Waxing Gibbous, 72% visible
Pressure 30.37 in
Visibility 10.0 miles
Clouds Clear
Windchill 50 °F
Dew Point 36 °F
Humidity 59%
Rainfall 0.00 in
Snow Depth Not available.
UV 0.0 out of 12
Pollen 6.60 out of 12
Air Quality Not available.
Flu Activity Not available.
METAR KILM 272153Z 13006KT 10SM CLR 08/01 A3037 RMK AO2 SLP282 T00830011

More Conditions Fewer Conditions

Pressure 30.37 in
Visibility 10.0 miles
Clouds Clear
Windchill 50 °F
Dew Point 36 °F
Humidity 59%
Rainfall 0.00 in
Snow Depth Not available.
UV 0.0 out of 12
Pollen 6.60 out of 12
Air Quality Not available.
Flu Activity Not available.
METAR KILM 272153Z 13006KT 10SM CLR 08/01 A3037 RMK AO2 SLP282 T00830011

More Conditions Fewer Conditions

10-Day Weather Forecast

Almanac

Astronomy

Feb. 27, 2015 Rise Set
Actual Time
Civil Twilight
Nautical Twilight
Astronomical Twilight
Moon
Length of Visible Light
Length of Day
Tomorrow will be .
, % of the Moon is Illuminated

Today's Extremes

State Highs State Lows

Community

WunderPhotos

Upload Photos

1,800,862 photos uploaded!

WunderBlogs® & News

Nearby

Air Quality

  Air Quality AQ Index Pollutant
Not available.

Snow Depth

Station Depth Elevation

Earthquake Activity

City Distance Mag. Time & Date
Minimum magnitude displayed is 2.5.

Coastal Water Temperatures

Place Temperature

Nearby Weather Stations

Flood Advisory
Statement as of 10:05 AM EST on February 27, 2015

The National Weather Service in Wilmington NC has issued a
* Flood Advisory for
the Northeast Cape fear near Burgaw.
* From Monday morning to Friday March 06.
* At 09 am Friday the stage was 7.6 feet.
* Advisory stage is 8.0 feet.
* Impact... at 10.0 feet... minor flooding of roads in the River Bend and river
birch subdivisions. Flooding of croomsbridge Road begins west of the bridge
over the river.


Lat... Lon 3472 7798 3472 7786 3460 7776 3445 7779
          3444 7788 3457 7788